createdAt,value
2018-10-18T00:01:35.094Z,10.49
2018-10-18T00:04:04.399Z,10.45
2018-10-18T00:06:33.759Z,10.50
2018-10-18T00:09:03.066Z,10.52
2018-10-18T00:11:32.386Z,10.49
2018-10-18T00:14:01.774Z,10.55
2018-10-18T00:16:31.063Z,10.45
2018-10-18T00:19:00.425Z,10.38
2018-10-18T00:21:29.886Z,10.34
2018-10-18T00:23:59.296Z,10.49
2018-10-18T00:26:28.629Z,10.51
2018-10-18T00:28:58.129Z,10.44
2018-10-18T00:31:27.885Z,10.27
2018-10-18T00:33:57.474Z,10.22
2018-10-18T00:36:26.907Z,10.30
2018-10-18T00:38:56.306Z,10.34
2018-10-18T00:41:25.888Z,10.23
2018-10-18T00:43:55.425Z,10.16
2018-10-18T00:46:24.821Z,10.10
2018-10-18T00:48:54.390Z,10.17
2018-10-18T00:51:24.074Z,10.18
2018-10-18T00:53:53.618Z,10.17
2018-10-18T00:56:23.226Z,10.18
2018-10-18T00:58:52.983Z,10.11
2018-10-18T01:01:22.834Z,10.15
2018-10-18T01:03:52.606Z,10.16
2018-10-18T01:06:22.152Z,10.11
2018-10-18T01:08:51.874Z,10.08
2018-10-18T01:11:21.780Z,10.06
2018-10-18T01:13:51.289Z,10.12
2018-10-18T01:16:20.732Z,10.21
2018-10-18T01:18:50.058Z,10.24
2018-10-18T01:21:19.394Z,10.18
2018-10-18T01:23:48.675Z,10.14
2018-10-18T01:26:18.078Z,10.04
2018-10-18T01:28:47.258Z,10.01
2018-10-18T01:31:16.551Z,9.93
2018-10-18T01:33:45.946Z,9.97
2018-10-18T01:36:15.348Z,9.91
2018-10-18T01:38:44.510Z,9.90
2018-10-18T01:41:13.873Z,9.87
2018-10-18T01:43:43.121Z,9.99
2018-10-18T01:46:12.402Z,9.92
2018-10-18T01:48:41.691Z,9.93
2018-10-18T01:51:10.962Z,9.88
2018-10-18T01:53:40.255Z,9.86
2018-10-18T01:56:09.604Z,9.96
2018-10-18T01:58:38.816Z,10.01
2018-10-18T02:01:08.098Z,10.04
2018-10-18T02:03:37.406Z,10.02
2018-10-18T02:06:07.252Z,10.06
2018-10-18T02:08:36.494Z,10.02
2018-10-18T02:11:06.592Z,10.01
2018-10-18T02:13:35.928Z,9.97
2018-10-18T02:16:05.783Z,9.88
2018-10-18T02:18:35.111Z,9.86
2018-10-18T02:21:04.722Z,9.78
2018-10-18T02:23:34.149Z,9.76
2018-10-18T02:26:03.522Z,9.78
2018-10-18T02:28:32.758Z,9.77
2018-10-18T02:31:02.046Z,9.68
2018-10-18T02:33:31.476Z,9.67
2018-10-18T02:36:00.814Z,9.59
2018-10-18T02:38:30.186Z,9.60
2018-10-18T02:40:59.569Z,9.58
2018-10-18T02:43:29.657Z,9.67
2018-10-18T02:45:59.104Z,9.71
2018-10-18T02:48:28.418Z,9.70
2018-10-18T02:50:57.917Z,9.74
2018-10-18T02:53:27.402Z,9.72
2018-10-18T02:55:56.804Z,9.64
2018-10-18T02:58:26.233Z,9.65
2018-10-18T03:00:55.720Z,9.65
2018-10-18T03:06:02.123Z,9.59
2018-10-18T03:08:31.351Z,9.47
2018-10-18T03:11:00.722Z,9.44
2018-10-18T03:13:30.594Z,9.49
2018-10-18T03:15:59.976Z,9.51
2018-10-18T03:18:29.327Z,9.60
2018-10-18T03:20:58.703Z,9.60
2018-10-18T03:23:28.107Z,9.69
2018-10-18T03:25:57.512Z,9.60
2018-10-18T03:28:27.056Z,9.56
2018-10-18T03:30:56.445Z,9.50
2018-10-18T03:33:26.095Z,9.49
2018-10-18T03:35:55.729Z,9.49
2018-10-18T03:38:25.101Z,9.41
2018-10-18T03:40:54.629Z,9.35
2018-10-18T03:43:24.046Z,9.34
2018-10-18T03:45:53.461Z,9.41
2018-10-18T03:48:22.890Z,9.43
2018-10-18T03:50:52.352Z,9.41
2018-10-18T03:53:21.904Z,9.41
2018-10-18T03:55:51.320Z,9.38
2018-10-18T03:58:20.666Z,9.39
2018-10-18T04:00:49.999Z,9.30
2018-10-18T04:03:19.305Z,9.35
2018-10-18T04:05:48.578Z,9.33
2018-10-18T04:08:18.000Z,9.31
2018-10-18T04:10:47.367Z,9.29
2018-10-18T04:13:16.682Z,9.19
2018-10-18T04:15:46.030Z,9.08
2018-10-18T04:18:15.468Z,9.20
2018-10-18T04:20:44.659Z,9.26
2018-10-18T04:23:18.051Z,9.27
2018-10-18T04:25:47.511Z,9.27
2018-10-18T04:28:16.812Z,9.26
2018-10-18T04:30:46.127Z,9.24
2018-10-18T04:33:15.452Z,9.35
2018-10-18T04:35:44.727Z,9.42
2018-10-18T04:38:14.094Z,9.32
2018-10-18T04:40:43.384Z,9.33
2018-10-18T04:43:12.669Z,9.26
2018-10-18T04:45:42.413Z,9.23
2018-10-18T04:48:12.092Z,9.26
2018-10-18T04:50:41.478Z,9.35
2018-10-18T04:53:11.098Z,9.30
2018-10-18T04:55:40.437Z,9.24
2018-10-18T04:58:09.750Z,9.19
2018-10-18T05:00:39.040Z,9.13
2018-10-18T05:03:08.358Z,9.12
2018-10-18T05:05:50.942Z,9.11
2018-10-18T05:08:21.167Z,9.10
2018-10-18T05:10:50.661Z,9.08
2018-10-18T05:13:20.152Z,9.16
2018-10-18T05:15:49.383Z,9.21
2018-10-18T05:18:18.818Z,9.19
2018-10-18T05:20:49.567Z,9.19
2018-10-18T05:23:18.955Z,9.19
2018-10-18T05:25:49.201Z,9.19
2018-10-18T05:28:18.659Z,9.13
2018-10-18T05:30:48.024Z,9.11
2018-10-18T05:33:17.831Z,9.17
2018-10-18T05:35:47.171Z,9.23
2018-10-18T05:38:16.654Z,9.15
2018-10-18T05:40:46.060Z,9.09
2018-10-18T05:43:15.524Z,9.18
2018-10-18T05:45:45.818Z,9.10
2018-10-18T05:48:15.181Z,9.03
2018-10-18T05:50:44.489Z,8.98
2018-10-18T05:53:13.853Z,9.05
2018-10-18T05:55:43.170Z,9.07
2018-10-18T05:58:12.574Z,9.05
2018-10-18T06:00:42.054Z,9.10
2018-10-18T06:03:11.530Z,9.11
2018-10-18T06:05:40.939Z,9.16
2018-10-18T06:08:10.413Z,9.12
2018-10-18T06:10:56.634Z,9.14
2018-10-18T06:13:26.106Z,9.21
2018-10-18T06:15:56.027Z,9.23
2018-10-18T06:18:25.734Z,9.14
2018-10-18T06:20:55.239Z,9.30
2018-10-18T06:23:24.897Z,9.42
2018-10-18T06:25:54.448Z,9.45
2018-10-18T06:28:24.111Z,9.50
2018-10-18T06:30:53.958Z,9.56
2018-10-18T06:33:23.615Z,9.64
2018-10-18T06:35:53.317Z,9.71
2018-10-18T06:38:23.339Z,9.78
2018-10-18T06:40:53.057Z,9.87
2018-10-18T06:43:23.230Z,9.90
2018-10-18T06:45:53.084Z,10.03
2018-10-18T06:48:22.889Z,10.09
2018-10-18T06:50:52.543Z,10.21
2018-10-18T06:53:22.879Z,10.24
2018-10-18T06:55:52.801Z,10.30
2018-10-18T06:58:22.873Z,10.33
2018-10-18T07:00:52.643Z,10.40
2018-10-18T07:03:22.640Z,10.50
2018-10-18T07:05:52.234Z,10.52
2018-10-18T07:08:22.420Z,10.59
2018-10-18T07:10:52.133Z,10.66
2018-10-18T07:13:21.774Z,10.69
2018-10-18T07:15:51.572Z,10.80
2018-10-18T07:18:21.086Z,10.89
2018-10-18T07:20:50.628Z,10.93
2018-10-18T07:23:20.207Z,11.04
2018-10-18T07:25:49.646Z,11.20
2018-10-18T07:28:19.092Z,11.31
2018-10-18T07:30:48.415Z,11.36
2018-10-18T07:33:17.863Z,11.49
2018-10-18T07:35:48.576Z,11.59
2018-10-18T07:38:21.145Z,11.58
2018-10-18T07:40:50.834Z,11.61
2018-10-18T07:43:23.644Z,11.72
2018-10-18T07:45:53.348Z,11.79
2018-10-18T07:48:24.897Z,11.80
2018-10-18T07:50:54.415Z,11.93
2018-10-18T07:53:24.028Z,11.97
2018-10-18T07:55:55.918Z,11.96
2018-10-18T07:58:25.685Z,12.04
2018-10-18T08:00:55.276Z,12.16
2018-10-18T08:03:24.840Z,12.23
2018-10-18T08:05:54.497Z,12.47
2018-10-18T08:08:24.346Z,12.59
2018-10-18T08:10:54.080Z,12.68
2018-10-18T08:13:23.638Z,12.70
2018-10-18T08:15:53.303Z,12.83
2018-10-18T08:18:22.994Z,13.02
2018-10-18T08:20:52.641Z,13.19
2018-10-18T08:23:22.547Z,13.15
2018-10-18T08:25:52.269Z,13.81
2018-10-18T08:28:21.931Z,14.15
2018-10-18T08:30:54.106Z,13.84
2018-10-18T08:33:25.429Z,13.71
2018-10-18T08:35:55.208Z,13.76
2018-10-18T08:38:24.741Z,13.79
2018-10-18T08:40:54.630Z,14.19
2018-10-18T08:43:24.371Z,14.44
2018-10-18T08:45:55.784Z,14.52
2018-10-18T08:48:25.539Z,14.33
2018-10-18T08:50:55.195Z,14.59
2018-10-18T08:53:25.123Z,14.78
2018-10-18T08:55:54.923Z,14.72
2018-10-18T08:58:24.638Z,14.80
2018-10-18T09:00:54.603Z,15.12
2018-10-18T09:03:24.264Z,15.32
2018-10-18T09:05:54.132Z,15.38
2018-10-18T09:08:23.954Z,15.70
2018-10-18T09:10:53.728Z,15.55
2018-10-18T09:13:23.180Z,15.78
2018-10-18T09:15:52.685Z,15.57
2018-10-18T09:18:22.559Z,15.60
2018-10-18T09:20:52.370Z,15.91
2018-10-18T09:23:29.617Z,15.95
2018-10-18T09:25:59.018Z,16.26
2018-10-18T09:28:28.542Z,16.32
2018-10-18T09:31:01.972Z,16.55
2018-10-18T09:33:31.240Z,16.72
2018-10-18T09:36:00.580Z,16.70
2018-10-18T09:38:30.106Z,16.52
2018-10-18T09:41:01.394Z,16.59
2018-10-18T09:43:30.704Z,16.58
2018-10-18T09:46:00.088Z,16.59
2018-10-18T09:48:31.394Z,16.72
2018-10-18T09:51:00.764Z,16.42
2018-10-18T09:53:30.186Z,16.49
2018-10-18T09:55:59.599Z,16.33
2018-10-18T09:58:28.929Z,16.55
2018-10-18T10:01:03.434Z,16.75
2018-10-18T10:03:32.678Z,17.05
2018-10-18T10:06:01.985Z,17.26
2018-10-18T10:08:31.298Z,17.26
2018-10-18T10:11:00.623Z,17.52
2018-10-18T10:13:30.023Z,17.44
2018-10-18T10:15:59.386Z,17.45
2018-10-18T10:18:28.848Z,17.45
2018-10-18T10:20:58.359Z,17.60
2018-10-18T10:23:27.809Z,17.62
2018-10-18T10:25:57.326Z,17.62
2018-10-18T10:28:27.035Z,17.66
2018-10-18T10:30:56.666Z,17.73
2018-10-18T10:33:27.689Z,17.87
2018-10-18T10:35:57.904Z,18.04
2018-10-18T10:38:27.391Z,18.16
2018-10-18T10:40:57.186Z,17.98
2018-10-18T10:43:26.719Z,18.08
2018-10-18T10:45:56.708Z,18.16
2018-10-18T10:48:26.311Z,18.15
2018-10-18T10:50:55.882Z,18.50
2018-10-18T10:53:25.609Z,18.62
2018-10-18T10:55:55.208Z,18.61
2018-10-18T10:58:26.459Z,18.34
2018-10-18T11:01:12.482Z,18.58
2018-10-18T11:03:42.873Z,18.98
2018-10-18T11:06:12.840Z,18.63
2018-10-18T11:08:42.410Z,18.62
2018-10-18T11:11:12.987Z,18.85
2018-10-18T11:13:42.721Z,19.18
2018-10-18T11:16:15.169Z,18.99
2018-10-18T11:18:47.561Z,19.27
2018-10-18T11:21:18.015Z,19.29
2018-10-18T11:23:47.963Z,19.26
2018-10-18T11:26:17.401Z,19.43
2018-10-18T11:28:46.588Z,19.11
2018-10-18T11:31:15.877Z,19.27
2018-10-18T11:33:45.270Z,19.42
2018-10-18T11:36:14.664Z,19.81
2018-10-18T11:38:43.968Z,19.64
2018-10-18T11:41:13.278Z,19.61
2018-10-18T11:43:42.616Z,19.73
2018-10-18T11:46:11.967Z,19.83
2018-10-18T11:48:41.400Z,20.01
2018-10-18T11:51:10.717Z,19.51
2018-10-18T11:53:40.146Z,19.79
2018-10-18T11:56:09.651Z,19.76
2018-10-18T11:58:39.137Z,19.57
2018-10-18T12:01:08.758Z,20.03
2018-10-18T12:03:40.443Z,20.12
2018-10-18T12:06:09.802Z,20.14
2018-10-18T12:08:39.205Z,20.22
2018-10-18T12:11:09.345Z,20.45
2018-10-18T12:13:40.050Z,20.39
2018-10-18T12:16:10.250Z,20.32
2018-10-18T12:18:40.686Z,20.48
2018-10-18T12:21:10.086Z,20.46
2018-10-18T12:23:39.578Z,20.44
2018-10-18T12:26:09.184Z,20.81
2018-10-18T12:28:38.687Z,20.44
2018-10-18T12:31:08.528Z,20.12
2018-10-18T12:33:38.206Z,20.15
2018-10-18T12:36:07.950Z,20.52
2018-10-18T12:38:37.534Z,20.91
2018-10-18T12:41:09.162Z,20.61
2018-10-18T12:43:39.059Z,20.80
2018-10-18T12:46:08.804Z,20.67
2018-10-18T12:48:38.405Z,20.39
2018-10-18T12:51:07.956Z,20.77
2018-10-18T12:53:37.901Z,20.85
2018-10-18T12:56:07.931Z,20.34
2018-10-18T12:58:37.713Z,20.67
2018-10-18T13:01:07.541Z,20.77
2018-10-18T13:03:43.675Z,20.79
2018-10-18T13:06:13.063Z,21.01
2018-10-18T13:08:42.366Z,21.14
2018-10-18T13:11:11.848Z,21.16
2018-10-18T13:13:45.668Z,20.80
2018-10-18T13:16:15.007Z,20.87
2018-10-18T13:18:44.366Z,20.95
2018-10-18T13:21:14.015Z,20.93
2018-10-18T13:23:43.466Z,20.81
2018-10-18T13:26:12.967Z,20.54
2018-10-18T13:28:42.309Z,20.86
2018-10-18T13:31:11.715Z,20.85
2018-10-18T13:33:41.159Z,20.85
2018-10-18T13:36:13.090Z,21.01
2018-10-18T13:38:43.794Z,20.83
2018-10-18T13:41:13.257Z,20.74
2018-10-18T13:43:42.616Z,20.87
2018-10-18T13:46:12.007Z,20.88
2018-10-18T13:48:41.630Z,20.83
2018-10-18T13:51:11.034Z,20.84
2018-10-18T13:53:41.786Z,20.85
2018-10-18T13:56:12.621Z,20.86
2018-10-18T13:58:43.563Z,20.75
2018-10-18T14:01:13.049Z,20.69
2018-10-18T14:03:42.381Z,20.61
2018-10-18T14:06:11.855Z,20.72
2018-10-18T14:08:41.351Z,20.77
2018-10-18T14:11:11.146Z,20.68
2018-10-18T14:13:40.557Z,20.48
2018-10-18T14:16:10.046Z,20.56
2018-10-18T14:18:39.405Z,20.65
2018-10-18T14:21:09.645Z,20.63
2018-10-18T14:23:39.066Z,20.58
2018-10-18T14:26:08.489Z,20.50
2018-10-18T14:28:37.846Z,20.29
2018-10-18T14:31:07.484Z,20.31
2018-10-18T14:33:37.186Z,20.30
2018-10-18T14:36:07.469Z,20.42
2018-10-18T14:38:37.181Z,20.39
2018-10-18T14:41:06.692Z,20.41
2018-10-18T14:43:35.947Z,20.26
2018-10-18T14:46:05.805Z,20.20
2018-10-18T14:48:35.629Z,20.15
2018-10-18T14:51:06.688Z,20.07
2018-10-18T14:53:36.088Z,20.06
2018-10-18T14:56:05.806Z,20.12
2018-10-18T14:58:35.194Z,20.06
2018-10-18T15:01:04.762Z,20.08
2018-10-18T15:03:34.142Z,20.04
2018-10-18T15:06:03.771Z,20.00
2018-10-18T15:08:33.180Z,20.01
2018-10-18T15:11:02.693Z,19.94
2018-10-18T15:13:32.293Z,19.91
2018-10-18T15:16:01.570Z,19.87
2018-10-18T15:18:30.937Z,19.84
2018-10-18T15:21:00.522Z,19.76
2018-10-18T15:23:29.784Z,19.71
2018-10-18T15:25:59.274Z,19.63
2018-10-18T15:28:33.055Z,19.51
2018-10-18T15:31:02.455Z,19.47
2018-10-18T15:33:32.629Z,19.51
2018-10-18T15:36:02.007Z,19.39
2018-10-18T15:38:31.463Z,19.37
2018-10-18T15:41:00.694Z,19.28
2018-10-18T15:43:30.561Z,19.17
2018-10-18T15:46:00.008Z,19.21
2018-10-18T15:48:29.507Z,18.98
2018-10-18T15:50:58.923Z,18.85
2018-10-18T15:53:28.305Z,18.76
2018-10-18T15:55:58.603Z,18.70
2018-10-18T15:58:27.951Z,18.78
2018-10-18T16:00:57.344Z,18.81
2018-10-18T16:03:26.722Z,18.62
2018-10-18T16:05:56.580Z,18.61
2018-10-18T16:08:26.228Z,18.55
2018-10-18T16:10:55.562Z,18.56
2018-10-18T16:13:25.033Z,18.47
2018-10-18T16:15:56.034Z,18.30
2018-10-18T16:18:25.476Z,18.27
2018-10-18T16:20:54.970Z,18.23
2018-10-18T16:23:24.350Z,18.08
2018-10-18T16:25:53.909Z,18.10
2018-10-18T16:28:23.231Z,18.09
2018-10-18T16:30:52.559Z,18.02
2018-10-18T16:33:21.944Z,17.95
2018-10-18T16:35:51.340Z,17.85
2018-10-18T16:38:20.759Z,17.96
2018-10-18T16:40:51.070Z,17.80
2018-10-18T16:43:20.337Z,17.71
2018-10-18T16:45:49.650Z,17.61
2018-10-18T16:48:19.049Z,17.51
2018-10-18T16:50:48.291Z,17.52
2018-10-18T16:53:17.552Z,17.51
2018-10-18T16:55:46.837Z,17.40
2018-10-18T16:58:16.187Z,17.32
2018-10-18T17:00:45.486Z,17.33
2018-10-18T17:03:14.803Z,17.35
2018-10-18T17:05:44.109Z,17.28
2018-10-18T17:08:13.483Z,17.17
2018-10-18T17:10:42.679Z,17.08
2018-10-18T17:13:11.963Z,16.88
2018-10-18T17:15:41.277Z,16.84
2018-10-18T17:18:10.796Z,16.85
2018-10-18T17:20:44.778Z,16.73
2018-10-18T17:23:18.102Z,16.86
2018-10-18T17:25:47.391Z,16.85
2018-10-18T17:28:16.678Z,16.76
2018-10-18T17:30:45.975Z,16.66
2018-10-18T17:33:15.319Z,16.42
2018-10-18T17:35:44.656Z,16.45
2018-10-18T17:38:14.005Z,16.50
2018-10-18T17:40:43.401Z,16.39
2018-10-18T17:43:12.567Z,16.17
2018-10-18T17:45:41.898Z,16.05
2018-10-18T17:48:11.267Z,16.00
2018-10-18T17:50:40.687Z,15.78
2018-10-18T17:53:10.092Z,15.78
2018-10-18T17:55:39.438Z,15.72
2018-10-18T17:58:09.024Z,15.60
2018-10-18T18:00:38.410Z,15.51
2018-10-18T18:03:07.478Z,15.60
2018-10-18T18:05:37.292Z,15.71
2018-10-18T18:08:06.921Z,15.63
2018-10-18T18:10:36.238Z,15.69
2018-10-18T18:13:05.873Z,15.43
2018-10-18T18:15:35.316Z,15.23
2018-10-18T18:20:41.755Z,14.84
2018-10-18T18:23:11.134Z,14.77
2018-10-18T18:25:40.571Z,14.62
2018-10-18T18:28:09.945Z,14.54
2018-10-18T18:30:41.299Z,14.42
2018-10-18T18:33:10.601Z,14.32
2018-10-18T18:35:42.202Z,14.19
2018-10-18T18:38:11.515Z,14.12
2018-10-18T18:40:40.906Z,13.96
2018-10-18T18:43:10.273Z,13.88
2018-10-18T18:45:39.911Z,13.73
2018-10-18T18:48:09.368Z,13.65
2018-10-18T18:50:38.900Z,13.62
2018-10-18T18:53:08.358Z,13.55
2018-10-18T18:55:37.860Z,13.48
2018-10-18T18:58:07.371Z,13.38
2018-10-18T19:00:37.087Z,13.48
2018-10-18T19:03:07.049Z,13.66
2018-10-18T19:05:36.640Z,13.63
2018-10-18T19:08:06.557Z,13.55
2018-10-18T19:10:35.955Z,13.43
2018-10-18T19:13:05.844Z,13.35
2018-10-18T19:15:35.435Z,13.27
2018-10-18T19:18:04.917Z,13.36
2018-10-18T19:20:34.322Z,13.40
2018-10-18T19:23:03.899Z,13.53
2018-10-18T19:25:33.235Z,13.56
2018-10-18T19:28:02.911Z,13.64
2018-10-18T19:30:32.282Z,13.72
2018-10-18T19:33:01.609Z,13.74
2018-10-18T19:35:30.879Z,14.00
2018-10-18T19:38:00.669Z,14.02
2018-10-18T19:40:29.866Z,13.93
2018-10-18T19:42:59.175Z,13.72
2018-10-18T19:45:28.511Z,13.58
2018-10-18T19:47:58.956Z,13.41
2018-10-18T19:50:28.412Z,13.38
2018-10-18T19:52:57.747Z,13.21
2018-10-18T19:55:27.117Z,13.03
2018-10-18T19:57:56.327Z,12.92
2018-10-18T20:00:25.878Z,12.76
2018-10-18T20:02:55.765Z,12.62
2018-10-18T20:05:25.249Z,12.56
2018-10-18T20:07:54.881Z,12.54
2018-10-18T20:10:24.391Z,12.49
2018-10-18T20:12:53.855Z,12.44
2018-10-18T20:15:23.256Z,12.40
2018-10-18T20:17:52.789Z,12.31
2018-10-18T20:20:22.081Z,12.30
2018-10-18T20:22:51.419Z,12.31
2018-10-18T20:25:20.758Z,12.19
2018-10-18T20:27:50.132Z,12.11
2018-10-18T20:30:19.502Z,12.06
2018-10-18T20:32:48.818Z,12.03
2018-10-18T20:35:18.098Z,11.98
2018-10-18T20:37:47.394Z,11.94
2018-10-18T20:40:16.772Z,11.92
2018-10-18T20:42:46.179Z,11.84
2018-10-18T20:45:20.633Z,11.84
2018-10-18T20:47:49.981Z,11.74
2018-10-18T20:50:19.710Z,11.77
2018-10-18T20:52:49.113Z,11.70
2018-10-18T20:55:18.374Z,11.74
2018-10-18T20:57:47.890Z,11.68
2018-10-18T21:00:17.342Z,11.62
2018-10-18T21:02:46.719Z,11.59
2018-10-18T21:05:16.061Z,11.56
2018-10-18T21:07:45.765Z,11.52
2018-10-18T21:10:15.147Z,11.40
2018-10-18T21:12:44.575Z,11.39
2018-10-18T21:15:13.998Z,11.31
2018-10-18T21:17:43.295Z,11.35
2018-10-18T21:20:15.495Z,11.25
2018-10-18T21:22:47.947Z,11.22
2018-10-18T21:25:17.288Z,11.14
2018-10-18T21:27:46.602Z,11.14
2018-10-18T21:30:15.844Z,11.10
2018-10-18T21:32:45.210Z,11.14
2018-10-18T21:35:14.547Z,11.06
2018-10-18T21:37:43.839Z,10.97
2018-10-18T21:40:13.243Z,10.90
2018-10-18T21:42:42.634Z,10.90
2018-10-18T21:45:12.315Z,10.83
2018-10-18T21:47:41.842Z,10.74
2018-10-18T21:50:11.439Z,10.79
2018-10-18T21:52:40.950Z,10.93
2018-10-18T21:55:10.588Z,10.87
2018-10-18T21:57:40.073Z,10.74
2018-10-18T22:00:17.640Z,10.74
2018-10-18T22:02:47.487Z,10.72
2018-10-18T22:05:16.869Z,10.65
2018-10-18T22:07:46.091Z,10.65
2018-10-18T22:10:15.384Z,10.66
2018-10-18T22:12:44.739Z,10.60
2018-10-18T22:15:14.256Z,10.56
2018-10-18T22:17:43.691Z,10.53
2018-10-18T22:20:13.123Z,10.48
2018-10-18T22:22:42.427Z,10.48
2018-10-18T22:25:11.822Z,10.49
2018-10-18T22:27:41.278Z,10.49
2018-10-18T22:30:10.840Z,10.48
2018-10-18T22:32:40.245Z,10.41
2018-10-18T22:35:09.720Z,10.40
2018-10-18T22:37:39.107Z,10.34
2018-10-18T22:40:08.920Z,10.31
2018-10-18T22:42:38.386Z,10.25
2018-10-18T22:45:08.607Z,10.23
2018-10-18T22:47:37.955Z,10.28
2018-10-18T22:50:07.571Z,10.28
2018-10-18T22:52:37.072Z,10.39
2018-10-18T22:55:07.113Z,10.39
2018-10-18T22:57:36.511Z,10.33
2018-10-18T23:00:07.634Z,10.32
2018-10-18T23:02:37.040Z,10.24
2018-10-18T23:05:06.688Z,10.23
2018-10-18T23:07:36.377Z,10.15
2018-10-18T23:10:06.529Z,10.18
2018-10-18T23:12:35.905Z,10.12
2018-10-18T23:15:06.918Z,10.16
2018-10-18T23:17:36.198Z,10.01
2018-10-18T23:20:06.762Z,10.01
2018-10-18T23:22:36.231Z,9.89
2018-10-18T23:25:06.385Z,9.85
2018-10-18T23:27:35.767Z,9.82
2018-10-18T23:30:06.330Z,9.90
2018-10-18T23:32:35.662Z,9.92
2018-10-18T23:35:05.322Z,9.86
2018-10-18T23:37:34.533Z,9.88
2018-10-18T23:40:04.305Z,9.89
2018-10-18T23:42:34.685Z,9.84
2018-10-18T23:45:04.110Z,9.78
2018-10-18T23:47:33.386Z,9.75
2018-10-18T23:50:02.734Z,9.88
2018-10-18T23:52:32.188Z,9.78
2018-10-18T23:55:01.640Z,9.72
2018-10-18T23:57:31.027Z,9.65
